This is the latest recevied weather packets stored in our database for station/object HK6RM-18. If no packets are shown the sender has not sent any weather packets the latest 10 day(s).
| Time | Temp. | Humidity | Pressure | Rain* | Wind** | Luminosity | Snow |
|---|---|---|---|---|---|---|---|
| 1778125434 | 14.44° C | 76% | 1017 hPa | 0 mm | - | - | - |
| 1778124529 | 15° C | 76% | 1017 hPa | 0 mm | - | - | - |
| 1778123628 | 15.56° C | 76% | 1017 hPa | 0 mm | - | - | - |
| 1778122728 | 16.67° C | 76% | 1017 hPa | 0 mm | - | - | - |
| 1778121827 | 17.78° C | 77% | 1017 hPa | 0 mm | - | - | - |
| 1778120926 | 19.44° C | 78% | 1016 hPa | 0 mm | - | - | - |
| 1778120024 | 20.56° C | 81% | 1016 hPa | 0 mm | - | - | - |
| 1778119122 | 14.44° C | 72% | 1016 hPa | 0 mm | - | - | - |
| 1778118220 | 15° C | 72% | 1016 hPa | 0 mm | - | - | - |
| 1778117320 | 21.67° C | 81% | 1015 hPa | 0 mm | - | - | - |
| 1778116419 | 21.67° C | 81% | 1015 hPa | 0 mm | - | - | - |
| 1778115518 | 15° C | 72% | 1015 hPa | 0 mm | - | - | - |
| 1778114617 | 15.56° C | 72% | 1015 hPa | 0 mm | - | - | - |
| 1778113716 | 15.56° C | 71% | 1014 hPa | 0 mm | - | - | - |
| 1778112815 | 16.11° C | 71% | 1014 hPa | 0 mm | - | - | - |
| 1778111914 | 16.67° C | 71% | 1014 hPa | 0 mm | - | - | - |
| 1778111014 | 17.22° C | 71% | 1013 hPa | 0 mm | - | - | - |
| 1778110113 | 17.78° C | 71% | 1012 hPa | 0 mm | - | - | - |
| 1778109210 | 18.33° C | 71% | 1012 hPa | 0 mm | - | - | - |
| 1778108308 | 18.89° C | 71% | 1012 hPa | 0 mm | - | - | - |
| 1778107408 | 19.44° C | 71% | 1012 hPa | 0 mm | - | - | - |
| 1778106508 | 20° C | 71% | 1011 hPa | 0 mm | - | - | - |
| 1778105606 | 20.56° C | 70% | 1010 hPa | 0 mm | - | - | - |
| 1778104705 | 21.11° C | 70% | 1010 hPa | 0 mm | - | - | - |
| 1778103805 | 22.22° C | 70% | 1010 hPa | 0 mm | - | - | - |
* Rain latest hour (hover to see other rain measurements)
** Current wind speed in m/s (hover to see current wind gust speed)